Time;durP1;ratioP1;P1;durP2;ratioP2;P2;SDS_P1;SDS_P2;PMS_P1;PMS_P2;Temp;Humidity;BMP_temperature;BMP_pressure;BME280_temperature;BME280_humidity;BME280_pressure;Samples;Min_cycle;Max_cycle;Signal;HPM_P1;HPM_P2
2022/08/03 00:00:44;;;;;;;18.05;4.20;;;;;;;;;;5045243;28;19994;-85
2022/08/03 00:03:12;;;;;;;12.68;3.92;;;;;;;;;;5044026;28;20131;-83
2022/08/03 00:05:39;;;;;;;17.50;4.25;;;;;;;;;;5047414;28;20045;-78
2022/08/03 00:08:05;;;;;;;14.10;4.30;;;;;;;;;;5047264;28;20056;-81
2022/08/03 00:10:33;;;;;;;12.70;3.65;;;;;;;;;;5035327;28;20079;-82
2022/08/03 00:13:03;;;;;;;14.32;3.75;;;;;;;;;;5038789;28;20425;-83
2022/08/03 00:15:29;;;;;;;15.00;4.07;;;;;;;;;;5055565;28;20116;-81
2022/08/03 00:17:54;;;;;;;;;;;;;;;;;;5058996;28;20059;-85
2022/08/03 00:20:21;;;;;;;16.65;4.38;;;;;;;;;;5055229;28;20281;-84
2022/08/03 00:22:47;;;;;;;15.95;4.20;;;;;;;;;;5048727;28;20087;-85
2022/08/03 00:25:14;;;;;;;12.15;3.53;;;;;;;;;;5049073;28;20171;-84
2022/08/03 00:27:40;;;;;;;;;;;;;;;;;;5029849;28;20081;-77
2022/08/03 00:30:07;;;;;;;16.13;3.75;;;;;;;;;;5030052;28;20349;-84
2022/08/03 00:32:36;;;;;;;14.20;3.97;;;;;;;;;;5029455;28;20080;-87
2022/08/03 00:35:02;;;;;;;11.35;4.32;;;;;;;;;;5040104;28;20059;-86
2022/08/03 00:37:28;;;;;;;15.57;4.25;;;;;;;;;;5048721;28;20059;-79
2022/08/03 00:40:03;;;;;;;16.00;4.10;;;;;;;;;;5030528;28;20473;-80
2022/08/03 00:42:30;;;;;;;17.48;4.22;;;;;;;;;;5048691;28;20056;-82
2022/08/03 00:44:56;;;;;;;18.33;4.32;;;;;;;;;;5028729;28;20516;-83
2022/08/03 00:47:29;;;;;;;13.15;4.60;;;;;;;;;;5048695;28;20049;-86
2022/08/03 00:49:57;;;;;;;17.05;4.45;;;;;;;;;;5012287;28;20110;-86
2022/08/03 00:52:31;;;;;;;15.13;4.05;;;;;;;;;;5031709;28;20198;-77
2022/08/03 00:54:59;;;;;;;;;;;;;;;;;;5044707;28;20056;-80
2022/08/03 00:57:25;;;;;;;12.98;4.13;;;;;;;;;;5034594;28;19935;-84
2022/08/03 00:59:51;;;;;;;;;;;;;;;;;;5040701;28;20144;-76
2022/08/03 01:02:17;;;;;;;12.48;3.78;;;;;;;;;;5035156;28;20027;-79
2022/08/03 01:04:43;;;;;;;13.80;3.95;;;;;;;;;;5038481;28;20175;-81
2022/08/03 01:07:17;;;;;;;16.83;4.30;;;;;;;;;;5013552;28;20060;-77
2022/08/03 01:09:46;;;;;;;12.23;4.00;;;;;;;;;;5045170;28;20099;-78
2022/08/03 01:12:32;;;;;;;14.75;4.63;;;;;;;;;;5030042;28;20136;-77
2022/08/03 01:15:02;;;;;;;14.20;3.95;;;;;;;;;;5029435;28;20061;-77
2022/08/03 01:17:35;;;;;;;16.58;4.53;;;;;;;;;;5045801;28;20080;-77
2022/08/03 01:20:09;;;;;;;16.25;4.32;;;;;;;;;;5043897;28;20053;-78
2022/08/03 01:22:35;;;;;;;17.38;4.13;;;;;;;;;;5046543;28;20080;-76
2022/08/03 01:25:07;;;;;;;12.07;3.55;;;;;;;;;;5043014;28;20080;-81
2022/08/03 01:27:54;;;;;;;13.65;3.35;;;;;;;;;;5030347;28;20384;-78
2022/08/03 01:30:20;;;;;;;12.38;3.78;;;;;;;;;;5023928;28;20453;-77
2022/08/03 01:32:50;;;;;;;15.02;3.80;;;;;;;;;;5027814;28;20421;-78
2022/08/03 01:35:19;;;;;;;14.93;3.78;;;;;;;;;;5022320;28;20041;-78
2022/08/03 01:37:54;;;;;;;13.63;3.45;;;;;;;;;;5029084;28;20049;-78
2022/08/03 01:40:21;;;;;;;14.57;3.80;;;;;;;;;;5026954;28;20495;-78
2022/08/03 01:42:48;;;;;;;21.33;3.92;;;;;;;;;;5005714;28;20057;-78
2022/08/03 01:45:17;;;;;;;15.27;3.97;;;;;;;;;;5001936;28;20045;-78
2022/08/03 01:47:44;;;;;;;14.35;3.83;;;;;;;;;;5029414;28;20057;-78
2022/08/03 01:50:11;;;;;;;13.25;3.50;;;;;;;;;;5027190;28;20227;-79
2022/08/03 01:52:42;;;;;;;12.40;3.55;;;;;;;;;;5028730;28;20469;-78
2022/08/03 01:55:09;;;;;;;13.27;3.70;;;;;;;;;;5029030;28;20046;-77
2022/08/03 01:57:37;;;;;;;15.73;3.58;;;;;;;;;;5029872;28;20056;-74
2022/08/03 02:00:13;;;;;;;13.35;3.55;;;;;;;;;;5027475;28;20069;-77
2022/08/03 02:02:40;;;;;;;12.82;3.55;;;;;;;;;;5020752;28;20126;-78
2022/08/03 02:05:07;;;;;;;12.55;3.33;;;;;;;;;;5027870;28;20053;-78
2022/08/03 02:07:43;;;;;;;14.40;3.28;;;;;;;;;;5029687;28;20088;-78
2022/08/03 02:10:11;;;;;;;18.20;3.20;;;;;;;;;;5028299;28;20050;-78
2022/08/03 02:12:38;;;;;;;11.20;3.42;;;;;;;;;;5027567;28;20434;-78
2022/08/03 02:15:05;;;;;;;13.55;3.03;;;;;;;;;;5029756;28;20045;-79
2022/08/03 02:17:32;;;;;;;12.85;3.20;;;;;;;;;;5027553;28;20228;-79
2022/08/03 02:19:59;;;;;;;12.30;3.28;;;;;;;;;;5026698;28;20060;-79
2022/08/03 02:22:29;;;;;;;13.07;3.30;;;;;;;;;;5027101;28;20404;-76
2022/08/03 02:24:55;;;;;;;13.85;3.63;;;;;;;;;;5027114;28;20504;-76
2022/08/03 02:27:23;;;;;;;12.15;3.22;;;;;;;;;;5030009;28;20067;-80
2022/08/03 02:29:56;;;;;;;17.58;3.72;;;;;;;;;;5028988;28;20049;-76
2022/08/03 02:32:24;;;;;;;14.10;3.53;;;;;;;;;;5027185;28;20130;-76
2022/08/03 02:34:52;;;;;;;10.60;3.20;;;;;;;;;;5026280;28;20211;-76
2022/08/03 02:37:21;;;;;;;11.68;3.33;;;;;;;;;;5029557;28;20082;-78
2022/08/03 02:39:47;;;;;;;14.98;3.72;;;;;;;;;;5028790;28;20485;-79
2022/08/03 02:42:15;;;;;;;10.50;3.30;;;;;;;;;;5030098;28;20053;-78
2022/08/03 02:44:46;;;;;;;13.57;3.63;;;;;;;;;;5048128;28;20142;-79
2022/08/03 02:47:14;;;;;;;12.40;3.40;;;;;;;;;;5048214;28;20139;-80
2022/08/03 02:49:43;;;;;;;15.98;3.55;;;;;;;;;;5032535;28;20110;-80
2022/08/03 02:52:10;;;;;;;17.15;4.05;;;;;;;;;;5048217;28;20102;-78
2022/08/03 02:54:37;;;;;;;11.18;3.10;;;;;;;;;;5046638;28;20342;-82
2022/08/03 02:57:07;;;;;;;10.57;3.28;;;;;;;;;;5035554;28;20063;-82
2022/08/03 02:59:33;;;;;;;14.05;3.60;;;;;;;;;;5049618;28;20063;-80
2022/08/03 03:02:03;;;;;;;13.63;3.55;;;;;;;;;;5030245;28;20076;-82
2022/08/03 03:04:30;;;;;;;14.57;3.90;;;;;;;;;;5045707;28;20091;-81
2022/08/03 03:06:56;;;;;;;13.63;3.38;;;;;;;;;;5047523;28;20055;-80
2022/08/03 03:09:23;;;;;;;12.40;3.63;;;;;;;;;;5015977;28;20056;-82
2022/08/03 03:11:53;;;;;;;10.55;3.13;;;;;;;;;;5030712;28;20065;-82
2022/08/03 03:14:23;;;;;;;10.55;3.20;;;;;;;;;;5048260;28;20048;-82
2022/08/03 03:17:10;;;;;;;11.65;3.75;;;;;;;;;;5038965;28;20098;-82
2022/08/03 03:19:36;;;;;;;11.25;3.17;;;;;;;;;;5029817;28;20041;-78
2022/08/03 03:22:05;;;;;;;11.38;3.30;;;;;;;;;;5048639;28;20231;-79
2022/08/03 03:24:32;;;;;;;13.35;3.60;;;;;;;;;;5029695;28;20041;-78
2022/08/03 03:27:02;;;;;;;15.00;3.67;;;;;;;;;;5031472;28;20144;-78
2022/08/03 03:29:28;;;;;;;17.88;3.25;;;;;;;;;;5030381;28;20140;-79
2022/08/03 03:31:56;;;;;;;15.05;3.58;;;;;;;;;;5030616;28;20056;-77
2022/08/03 03:34:22;;;;;;;13.15;3.95;;;;;;;;;;5046455;28;20381;-80
2022/08/03 03:36:48;;;;;;;14.90;4.05;;;;;;;;;;5048349;28;20044;-86
2022/08/03 03:39:14;;;;;;;;;;;;;;;;;;5047483;28;20101;-84
2022/08/03 03:41:41;;;;;;;17.13;3.90;;;;;;;;;;5049046;28;19920;-84
2022/08/03 03:44:08;;;;;;;14.73;3.65;;;;;;;;;;5046733;28;20064;-77
2022/08/03 03:51:45;;;;;;;14.32;4.00;;;;;;;;;;5025341;28;20080;-85
2022/08/03 03:54:11;;;;;;;;;;;;;;;;;;5011859;28;20053;-82
2022/08/03 03:56:37;;;;;;;17.45;4.20;;;;;;;;;;5009640;28;19937;-85
2022/08/03 03:59:03;;;;;;;;;;;;;;;;;;5028898;28;20046;-79
2022/08/03 04:01:29;;;;;;;14.50;4.13;;;;;;;;;;5011656;28;19981;-84
2022/08/03 04:03:55;;;;;;;15.02;3.85;;;;;;;;;;5009329;28;20060;-82
2022/08/03 04:11:53;;;;;;;15.15;4.15;;;;;;;;;;5026582;28;20483;-80
2022/08/03 04:14:25;;;;;;;15.75;4.20;;;;;;;;;;5028850;28;20133;-84
2022/08/03 04:17:06;;;;;;;16.83;3.80;;;;;;;;;;5027340;28;20450;-80
2022/08/03 04:19:32;;;;;;;21.42;4.15;;;;;;;;;;5028944;28;20049;-84
2022/08/03 04:22:00;;;;;;;15.10;4.20;;;;;;;;;;5019009;28;20129;-80
2022/08/03 04:24:30;;;;;;;15.18;3.97;;;;;;;;;;5016302;28;20053;-86
2022/08/03 04:26:57;;;;;;;14.73;4.20;;;;;;;;;;5027731;28;20045;-81
2022/08/03 04:29:25;;;;;;;13.07;4.25;;;;;;;;;;5028503;28;20056;-78
2022/08/03 04:31:53;;;;;;;15.23;4.10;;;;;;;;;;5026230;28;20118;-80
2022/08/03 04:34:19;;;;;;;16.40;4.15;;;;;;;;;;5026706;28;20045;-81
2022/08/03 04:36:45;;;;;;;;;;;;;;;;;;5028866;28;20271;-82
2022/08/03 04:39:17;;;;;;;18.83;4.22;;;;;;;;;;5025373;28;20348;-85
2022/08/03 04:41:44;;;;;;;14.07;4.07;;;;;;;;;;5009949;28;20212;-82
2022/08/03 04:44:11;;;;;;;14.55;4.45;;;;;;;;;;5011992;28;20046;-83
2022/08/03 04:46:38;;;;;;;15.30;4.38;;;;;;;;;;5008880;28;20363;-80
2022/08/03 04:49:06;;;;;;;13.30;4.38;;;;;;;;;;5008944;28;20041;-84
2022/08/03 04:51:37;;;;;;;18.42;4.40;;;;;;;;;;5027738;28;20072;-85
2022/08/03 04:54:03;;;;;;;20.85;4.45;;;;;;;;;;5025547;28;20064;-84
2022/08/03 04:56:29;;;;;;;15.07;4.40;;;;;;;;;;5012805;28;20394;-82
2022/08/03 04:58:55;;;;;;;18.55;4.53;;;;;;;;;;5001956;28;20360;-75
2022/08/03 05:01:22;;;;;;;15.57;4.43;;;;;;;;;;5008579;28;20199;-81
2022/08/03 05:03:48;;;;;;;17.60;4.25;;;;;;;;;;4995447;28;20060;-79
2022/08/03 05:06:14;;;;;;;16.15;4.63;;;;;;;;;;5026264;28;20038;-81
2022/08/03 05:08:40;;;;;;;;;;;;;;;;;;5008137;28;20049;-80
2022/08/03 05:11:06;;;;;;;14.73;4.07;;;;;;;;;;5027201;28;19998;-69
2022/08/03 05:13:32;;;;;;;;;;;;;;;;;;5028337;28;20045;-77
2022/08/03 05:15:58;;;;;;;14.35;5.00;;;;;;;;;;5024743;28;20027;-74
2022/08/03 05:18:24;;;;;;;20.33;5.30;;;;;;;;;;5028208;28;20049;-78
2022/08/03 05:20:50;;;;;;;16.50;4.68;;;;;;;;;;5022687;28;20084;-80
2022/08/03 05:23:16;;;;;;;16.63;4.60;;;;;;;;;;5027372;28;20687;-76
2022/08/03 05:25:42;;;;;;;;;;;;;;;;;;5021691;28;20042;-76
2022/08/03 05:28:08;;;;;;;15.75;4.38;;;;;;;;;;5008902;28;20302;-80
2022/08/03 05:30:36;;;;;;;12.20;3.95;;;;;;;;;;5016209;28;20115;-74
2022/08/03 05:33:03;;;;;;;16.85;4.65;;;;;;;;;;5028132;28;20346;-82
2022/08/03 05:35:29;;;;;;;15.60;4.28;;;;;;;;;;5023368;28;20330;-76
2022/08/03 05:37:55;;;;;;;16.90;4.38;;;;;;;;;;4992866;28;20140;-82
2022/08/03 05:40:21;;;;;;;15.13;4.82;;;;;;;;;;5015409;28;20080;-76
2022/08/03 05:42:48;;;;;;;15.32;4.40;;;;;;;;;;5012190;28;20057;-80
2022/08/03 05:45:16;;;;;;;14.05;3.90;;;;;;;;;;4974333;28;20046;-74
2022/08/03 05:47:43;;;;;;;13.25;4.20;;;;;;;;;;5019692;28;20124;-79
2022/08/03 05:50:10;;;;;;;16.90;4.50;;;;;;;;;;5027719;28;20061;-74
2022/08/03 05:52:37;;;;;;;16.65;4.45;;;;;;;;;;5022432;28;20049;-73
2022/08/03 05:55:04;;;;;;;13.43;4.15;;;;;;;;;;5027426;28;20124;-91
2022/08/03 05:57:30;;;;;;;17.42;4.78;;;;;;;;;;5005702;28;20380;-79
2022/08/03 05:59:56;;;;;;;;;;;;;;;;;;5023006;28;20472;-78
2022/08/03 06:02:22;;;;;;;16.55;4.45;;;;;;;;;;5015926;28;19956;-80
2022/08/03 06:04:48;;;;;;;20.58;4.57;;;;;;;;;;5011749;28;20048;-75
2022/08/03 06:07:14;;;;;;;17.42;4.43;;;;;;;;;;5018117;28;20368;-80
2022/08/03 06:09:40;;;;;;;17.02;4.63;;;;;;;;;;5008329;28;20457;-78
2022/08/03 06:12:06;;;;;;;;;;;;;;;;;;5025226;28;20056;-74
2022/08/03 06:14:32;;;;;;;19.10;5.35;;;;;;;;;;5027707;28;19921;-74
2022/08/03 06:16:58;;;;;;;;;;;;;;;;;;5004059;28;20168;-79
2022/08/03 06:19:26;;;;;;;18.80;4.93;;;;;;;;;;5024849;28;19932;-76
2022/08/03 06:21:52;;;;;;;17.98;4.60;;;;;;;;;;5020583;28;20053;-75
2022/08/03 06:24:18;;;;;;;;;;;;;;;;;;5027431;28;20114;-74
2022/08/03 06:26:44;;;;;;;20.38;4.78;;;;;;;;;;5006246;28;19925;-77
2022/08/03 06:29:10;;;;;;;19.90;4.95;;;;;;;;;;5000785;28;20465;-78
2022/08/03 06:31:36;;;;;;;;;;;;;;;;;;5026385;28;20086;-74
2022/08/03 06:34:04;;;;;;;17.80;4.50;;;;;;;;;;5028989;28;20214;-90
2022/08/03 06:36:30;;;;;;;16.10;5.03;;;;;;;;;;5023126;28;20068;-72
2022/08/03 06:38:58;;;;;;;22.60;4.72;;;;;;;;;;5020921;28;20101;-76
2022/08/03 06:41:24;;;;;;;19.85;4.50;;;;;;;;;;5016632;28;20054;-75
2022/08/03 06:43:50;;;;;;;17.10;4.97;;;;;;;;;;5014636;28;20057;-79
2022/08/03 06:46:16;;;;;;;;;;;;;;;;;;5026421;28;20041;-74
2022/08/03 06:48:42;;;;;;;16.08;4.95;;;;;;;;;;5026185;28;20351;-74
2022/08/03 06:51:09;;;;;;;17.40;4.80;;;;;;;;;;5003040;28;20088;-73
2022/08/03 06:53:35;;;;;;;16.90;4.80;;;;;;;;;;5021952;28;20363;-73
2022/08/03 06:56:01;;;;;;;;;;;;;;;;;;5009023;28;20401;-75
2022/08/03 06:58:27;;;;;;;21.27;5.55;;;;;;;;;;5033215;28;19963;-75
2022/08/03 07:00:53;;;;;;;17.85;5.10;;;;;;;;;;5028431;28;20388;-75
2022/08/03 07:03:19;;;;;;;;;;;;;;;;;;5002968;28;20129;-74
2022/08/03 07:05:46;;;;;;;20.40;5.00;;;;;;;;;;5021907;28;20364;-71
2022/08/03 07:08:12;;;;;;;18.77;5.28;;;;;;;;;;5029342;28;20114;-73
2022/08/03 07:10:38;;;;;;;20.42;4.97;;;;;;;;;;5025010;28;20033;-73
2022/08/03 07:13:04;;;;;;;;;;;;;;;;;;5025109;28;20045;-74
2022/08/03 07:15:30;;;;;;;19.88;5.22;;;;;;;;;;5024629;28;20194;-73
2022/08/03 07:17:56;;;;;;;;;;;;;;;;;;5015412;28;20096;-88
2022/08/03 07:20:22;;;;;;;17.25;5.00;;;;;;;;;;5010648;28;20380;-72
2022/08/03 07:22:48;;;;;;;;;;;;;;;;;;5032279;28;20107;-87
2022/08/03 07:25:14;;;;;;;21.00;5.03;;;;;;;;;;5029730;28;20329;-88
2022/08/03 07:27:44;;;;;;;24.50;5.10;;;;;;;;;;5012869;28;20468;-71
2022/08/03 07:30:10;;;;;;;21.50;5.00;;;;;;;;;;5027449;28;20046;-78
2022/08/03 07:32:36;;;;;;;19.70;5.18;;;;;;;;;;5014357;28;20115;-80
2022/08/03 07:35:06;;;;;;;17.85;5.55;;;;;;;;;;5027643;28;20041;-74
2022/08/03 07:37:33;;;;;;;22.92;5.18;;;;;;;;;;5030146;28;20046;-73
2022/08/03 07:39:59;;;;;;;23.73;5.57;;;;;;;;;;5029597;28;20107;-69
2022/08/03 07:42:29;;;;;;;19.92;5.13;;;;;;;;;;5029894;28;20042;-75
2022/08/03 07:44:55;;;;;;;17.38;4.88;;;;;;;;;;5027196;28;20045;-81
2022/08/03 07:47:23;;;;;;;18.80;6.05;;;;;;;;;;5030130;28;20068;-85
2022/08/03 07:49:49;;;;;;;23.55;5.78;;;;;;;;;;5011803;28;20417;-85
2022/08/03 07:55:00;;;;;;;19.25;4.78;;;;;;;;;;5027268;28;20065;-86
2022/08/03 07:57:25;;;;;;;;;;;;;;;;;;5029689;28;20114;-86
2022/08/03 07:59:52;;;;;;;20.02;6.78;;;;;;;;;;5010690;28;19921;-72
2022/08/03 08:02:18;;;;;;;17.20;5.22;;;;;;;;;;5010104;28;20056;-75
2022/08/03 08:04:44;;;;;;;18.90;5.50;;;;;;;;;;5029340;28;20065;-76
2022/08/03 08:07:10;;;;;;;;;;;;;;;;;;5029351;28;20144;-81
2022/08/03 08:09:36;;;;;;;22.42;5.50;;;;;;;;;;5029663;28;19960;-71
2022/08/03 08:12:02;;;;;;;;;;;;;;;;;;5027374;28;20126;-74
2022/08/03 08:14:28;;;;;;;14.63;4.97;;;;;;;;;;5029025;28;19955;-71
2022/08/03 08:16:54;;;;;;;22.02;5.30;;;;;;;;;;5013189;28;20042;-81
2022/08/03 08:19:20;;;;;;;21.20;5.85;;;;;;;;;;5008995;28;20049;-83
2022/08/03 08:21:46;;;;;;;;;;;;;;;;;;5009336;28;20085;-81
2022/08/03 08:24:13;;;;;;;19.67;6.07;;;;;;;;;;5006218;28;20024;-74
2022/08/03 08:26:39;;;;;;;22.27;5.47;;;;;;;;;;5024659;28;20065;-80
2022/08/03 08:29:05;;;;;;;;;;;;;;;;;;5028458;28;20046;-85
2022/08/03 08:31:31;;;;;;;15.20;4.93;;;;;;;;;;5010468;28;19932;-69
2022/08/03 08:33:58;;;;;;;17.33;5.50;;;;;;;;;;5026930;28;20414;-69
2022/08/03 08:36:24;;;;;;;16.88;5.57;;;;;;;;;;5026833;28;20061;-71
2022/08/03 08:38:50;;;;;;;21.08;5.90;;;;;;;;;;5009048;28;20437;-72
2022/08/03 08:41:16;;;;;;;19.50;5.15;;;;;;;;;;5027117;28;20133;-68
2022/08/03 08:43:42;;;;;;;22.13;5.80;;;;;;;;;;5028019;28;20061;-81
2022/08/03 08:46:12;;;;;;;18.90;5.78;;;;;;;;;;5027621;28;20045;-70
2022/08/03 08:48:41;;;;;;;19.55;5.32;;;;;;;;;;5022802;28;20049;-83
2022/08/03 08:51:08;;;;;;;19.48;5.53;;;;;;;;;;5027803;28;20061;-73
2022/08/03 08:53:36;;;;;;;20.95;5.15;;;;;;;;;;5010174;28;20075;-69
2022/08/03 08:56:03;;;;;;;20.20;5.40;;;;;;;;;;5026953;28;20048;-76
2022/08/03 08:58:30;;;;;;;18.90;5.68;;;;;;;;;;5025770;28;20464;-77
2022/08/03 09:00:56;;;;;;;18.15;5.63;;;;;;;;;;5008358;28;20144;-75
2022/08/03 09:03:22;;;;;;;19.77;5.38;;;;;;;;;;5009261;28;20432;-83
2022/08/03 09:05:48;;;;;;;19.95;5.82;;;;;;;;;;5020288;28;20056;-84
2022/08/03 09:08:14;;;;;;;19.38;5.43;;;;;;;;;;5023243;28;20183;-72
2022/08/03 09:10:40;;;;;;;21.45;5.90;;;;;;;;;;5022052;28;20449;-73
2022/08/03 09:13:06;;;;;;;;;;;;;;;;;;5015224;28;20184;-86
2022/08/03 09:15:33;;;;;;;20.35;6.18;;;;;;;;;;5010751;28;19976;-72
2022/08/03 09:17:59;;;;;;;16.17;5.72;;;;;;;;;;5019670;28;20041;-78
2022/08/03 09:20:27;;;;;;;26.55;6.13;;;;;;;;;;5013919;28;20111;-78
2022/08/03 09:22:55;;;;;;;18.98;5.50;;;;;;;;;;5013601;28;20165;-86
2022/08/03 09:25:34;;;;;;;22.13;6.25;;;;;;;;;;5019352;28;20037;-81
2022/08/03 09:28:05;;;;;;;17.80;5.97;;;;;;;;;;5016542;28;20164;-82
2022/08/03 09:30:31;;;;;;;19.35;5.88;;;;;;;;;;5012591;28;20128;-82
2022/08/03 09:33:01;;;;;;;23.20;6.10;;;;;;;;;;5015354;28;20357;-87
2022/08/03 09:35:27;;;;;;;17.35;6.10;;;;;;;;;;5008147;28;20061;-71
2022/08/03 09:38:12;;;;;;;18.33;5.63;;;;;;;;;;5008982;28;20037;-85
2022/08/03 09:40:39;;;;;;;19.05;6.00;;;;;;;;;;5026915;28;20088;-76
2022/08/03 09:43:07;;;;;;;19.45;6.20;;;;;;;;;;5021131;28;20097;-71
2022/08/03 09:45:33;;;;;;;19.80;6.05;;;;;;;;;;5003854;28;20512;-68
2022/08/03 09:48:19;;;;;;;17.58;5.65;;;;;;;;;;5003952;28;20049;-90
2022/08/03 09:51:04;;;;;;;17.67;5.97;;;;;;;;;;5007540;28;20071;-73
2022/08/03 09:53:30;;;;;;;20.40;5.88;;;;;;;;;;5016252;28;20084;-70
2022/08/03 09:55:57;;;;;;;18.55;5.55;;;;;;;;;;5016527;28;20041;-84
2022/08/03 09:58:24;;;;;;;19.45;6.63;;;;;;;;;;5027351;28;20091;-75
2022/08/03 10:00:53;;;;;;;19.65;6.13;;;;;;;;;;5013222;28;20374;-75
2022/08/03 10:03:19;;;;;;;19.90;5.57;;;;;;;;;;5018864;28;20042;-73
2022/08/03 10:05:45;;;;;;;16.60;5.57;;;;;;;;;;5016721;28;20116;-69
2022/08/03 10:08:15;;;;;;;20.17;5.57;;;;;;;;;;5026020;28;20160;-71
2022/08/03 10:10:42;;;;;;;18.58;6.10;;;;;;;;;;5027142;28;20136;-72
2022/08/03 10:13:08;;;;;;;21.45;6.13;;;;;;;;;;5020450;28;20109;-71
2022/08/03 10:15:34;;;;;;;20.27;5.63;;;;;;;;;;5023717;28;20125;-69
2022/08/03 10:18:00;;;;;;;19.80;5.32;;;;;;;;;;5027873;28;20045;-67
2022/08/03 10:20:26;;;;;;;21.42;5.22;;;;;;;;;;5005237;28;20053;-72
2022/08/03 10:22:52;;;;;;;18.70;5.40;;;;;;;;;;5011112;28;20046;-73
2022/08/03 10:25:19;;;;;;;15.68;5.80;;;;;;;;;;5018136;28;20042;-86
2022/08/03 10:27:47;;;;;;;20.20;5.55;;;;;;;;;;5013003;28;20052;-84
2022/08/03 10:30:13;;;;;;;21.63;5.93;;;;;;;;;;5023129;28;20077;-81
2022/08/03 10:33:02;;;;;;;18.85;6.13;;;;;;;;;;5016270;28;20442;-75
2022/08/03 10:35:29;;;;;;;14.38;5.13;;;;;;;;;;5019853;28;20519;-82
2022/08/03 10:37:57;;;;;;;16.35;5.25;;;;;;;;;;5017974;28;20045;-75
2022/08/03 10:40:23;;;;;;;22.23;5.60;;;;;;;;;;5023196;28;20551;-68
2022/08/03 10:42:51;;;;;;;16.10;5.30;;;;;;;;;;5020036;28;20045;-72
2022/08/03 10:45:23;;;;;;;17.23;5.03;;;;;;;;;;5024352;28;20129;-74
2022/08/03 10:47:51;;;;;;;25.45;6.55;;;;;;;;;;5029265;28;20171;-71
2022/08/03 10:50:17;;;;;;;19.70;5.15;;;;;;;;;;5017588;28;20698;-76
2022/08/03 10:53:00;;;;;;;23.35;5.15;;;;;;;;;;4994632;28;20409;-76
2022/08/03 10:58:36;;;;;;;19.25;5.00;;;;;;;;;;5023147;28;20061;-71
2022/08/03 11:01:10;;;;;;;19.27;5.47;;;;;;;;;;4983999;28;20432;-70
2022/08/03 11:03:52;;;;;;;20.70;5.20;;;;;;;;;;5013930;28;20897;-81
2022/08/03 11:06:19;;;;;;;19.60;5.50;;;;;;;;;;5017260;28;20041;-72
2022/08/03 11:08:45;;;;;;;19.23;5.82;;;;;;;;;;5021955;28;20067;-67
2022/08/03 11:11:17;;;;;;;18.60;5.97;;;;;;;;;;5018608;28;20103;-69
2022/08/03 11:14:03;;;;;;;20.42;6.85;;;;;;;;;;5024721;28;20178;-74
2022/08/03 11:16:30;;;;;;;24.63;6.40;;;;;;;;;;5010244;28;20049;-71
2022/08/03 11:18:57;;;;;;;22.08;6.63;;;;;;;;;;5025764;28;20046;-73
2022/08/03 11:21:42;;;;;;;19.75;6.10;;;;;;;;;;5022964;28;20061;-75
2022/08/03 11:24:08;;;;;;;26.67;6.78;;;;;;;;;;5009221;28;20128;-71
2022/08/03 11:26:34;;;;;;;20.08;6.82;;;;;;;;;;4991295;28;20049;-78
2022/08/03 11:29:20;;;;;;;26.05;6.97;;;;;;;;;;5014117;28;20469;-72
2022/08/03 11:31:49;;;;;;;22.95;6.30;;;;;;;;;;5001922;28;20050;-69
2022/08/03 11:34:16;;;;;;;22.88;6.55;;;;;;;;;;5028806;28;20485;-71
2022/08/03 11:37:01;;;;;;;20.35;6.43;;;;;;;;;;5028697;28;20041;-76
2022/08/03 11:39:42;;;;;;;25.05;6.80;;;;;;;;;;5023968;28;20049;-70
2022/08/03 11:42:31;;;;;;;22.52;6.25;;;;;;;;;;5012925;28;20042;-69
2022/08/03 11:44:58;;;;;;;27.13;7.38;;;;;;;;;;5004154;28;20053;-72
2022/08/03 11:47:26;;;;;;;28.63;6.65;;;;;;;;;;5026573;28;20049;-70
2022/08/03 11:49:57;;;;;;;24.95;7.13;;;;;;;;;;5015985;28;20053;-76
2022/08/03 11:52:24;;;;;;;22.05;6.43;;;;;;;;;;5025125;28;20422;-73
2022/08/03 11:54:50;;;;;;;22.60;7.10;;;;;;;;;;4991158;28;20049;-77
2022/08/03 11:57:29;;;;;;;20.17;6.45;;;;;;;;;;5005112;28;20041;-69
2022/08/03 11:59:55;;;;;;;21.65;7.05;;;;;;;;;;5021188;28;20520;-70
2022/08/03 12:02:21;;;;;;;22.73;6.90;;;;;;;;;;5020383;28;20492;-74
2022/08/03 12:04:52;;;;;;;23.00;6.85;;;;;;;;;;5016212;28;20352;-75
2022/08/03 12:07:21;;;;;;;19.58;6.75;;;;;;;;;;5002497;28;20055;-79
2022/08/03 12:10:06;;;;;;;21.38;6.68;;;;;;;;;;5016714;28;20033;-75
2022/08/03 12:12:32;;;;;;;23.02;7.10;;;;;;;;;;5017867;28;20127;-75
2022/08/03 12:14:58;;;;;;;26.83;7.53;;;;;;;;;;5026540;28;20053;-76
2022/08/03 12:17:32;;;;;;;30.10;7.07;;;;;;;;;;5026845;28;20146;-72
2022/08/03 12:19:58;;;;;;;21.65;6.00;;;;;;;;;;5016900;28;20045;-77
2022/08/03 12:22:34;;;;;;;21.45;6.18;;;;;;;;;;5020844;28;20660;-76
2022/08/03 12:25:00;;;;;;;26.10;7.55;;;;;;;;;;5023687;28;20101;-74
2022/08/03 12:27:28;;;;;;;28.13;6.88;;;;;;;;;;5026628;28;20132;-73
2022/08/03 12:29:55;;;;;;;24.17;6.15;;;;;;;;;;5016724;28;20442;-81
2022/08/03 12:32:21;;;;;;;23.10;5.82;;;;;;;;;;5018785;28;20065;-80
2022/08/03 12:34:48;;;;;;;27.00;5.97;;;;;;;;;;5027815;28;20121;-76
2022/08/03 12:37:14;;;;;;;19.45;6.47;;;;;;;;;;5024551;28;20047;-84
2022/08/03 12:39:40;;;;;;;27.33;6.80;;;;;;;;;;5009774;28;20064;-81
2022/08/03 12:42:06;;;;;;;23.17;5.90;;;;;;;;;;5026804;28;20049;-74
2022/08/03 12:44:34;;;;;;;31.85;6.47;;;;;;;;;;5025223;28;20128;-72
2022/08/03 12:47:00;;;;;;;25.73;7.20;;;;;;;;;;5027153;28;20421;-75
2022/08/03 12:49:28;;;;;;;26.10;6.22;;;;;;;;;;5009471;28;20069;-74
2022/08/03 12:51:55;;;;;;;25.90;6.03;;;;;;;;;;5017881;28;20065;-72
2022/08/03 12:54:25;;;;;;;23.70;6.22;;;;;;;;;;5008445;28;20084;-71
2022/08/03 12:56:58;;;;;;;21.63;6.32;;;;;;;;;;4989821;28;20058;-74
2022/08/03 12:59:28;;;;;;;23.25;6.38;;;;;;;;;;5008497;28;20143;-83
2022/08/03 13:01:55;;;;;;;20.83;6.40;;;;;;;;;;5011865;28;20075;-75
2022/08/03 13:04:31;;;;;;;24.67;6.93;;;;;;;;;;5027145;28;20150;-70
2022/08/03 13:07:05;;;;;;;22.50;6.38;;;;;;;;;;5024127;28;20107;-72
2022/08/03 13:09:41;;;;;;;29.60;7.68;;;;;;;;;;5024086;28;20053;-75
2022/08/03 13:12:08;;;;;;;21.85;6.97;;;;;;;;;;5018683;28;20053;-82
2022/08/03 13:14:34;;;;;;;23.38;6.60;;;;;;;;;;5014920;28;20045;-74
2022/08/03 13:17:01;;;;;;;24.48;7.28;;;;;;;;;;5012885;28;20154;-83
2022/08/03 13:19:27;;;;;;;23.85;7.72;;;;;;;;;;5014765;28;20408;-86
2022/08/03 13:21:53;;;;;;;23.52;7.70;;;;;;;;;;5015072;28;21495;-78
2022/08/03 13:24:19;;;;;;;23.55;7.53;;;;;;;;;;4999853;28;20053;-75
2022/08/03 13:26:45;;;;;;;27.95;6.13;;;;;;;;;;5011685;28;20435;-73
2022/08/03 13:29:11;;;;;;;26.95;6.95;;;;;;;;;;5016818;28;20037;-74
2022/08/03 13:31:37;;;;;;;24.00;6.25;;;;;;;;;;5020959;28;20038;-72
2022/08/03 13:34:03;;;;;;;25.92;7.10;;;;;;;;;;5029089;28;20068;-86
2022/08/03 13:36:29;;;;;;;22.27;6.28;;;;;;;;;;5021582;28;20399;-86
2022/08/03 13:38:55;;;;;;;20.23;5.78;;;;;;;;;;5014472;28;20127;-83
2022/08/03 13:41:21;;;;;;;21.73;6.05;;;;;;;;;;5004833;28;20072;-72
2022/08/03 13:43:47;;;;;;;17.10;5.80;;;;;;;;;;5012368;28;20057;-80
2022/08/03 13:46:13;;;;;;;25.52;6.40;;;;;;;;;;5018394;28;20041;-75
2022/08/03 13:48:39;;;;;;;29.27;7.38;;;;;;;;;;5027405;28;20068;-74
2022/08/03 13:51:05;;;;;;;23.50;6.05;;;;;;;;;;5016416;28;20164;-91
2022/08/03 13:53:32;;;;;;;19.73;5.68;;;;;;;;;;5015643;28;20046;-70
2022/08/03 13:55:58;;;;;;;22.05;5.63;;;;;;;;;;5022228;28;20056;-71
2022/08/03 13:58:24;;;;;;;23.17;6.40;;;;;;;;;;5019801;28;20149;-78
2022/08/03 14:00:50;;;;;;;18.35;5.53;;;;;;;;;;5025107;28;20453;-80
2022/08/03 14:03:16;;;;;;;25.42;6.28;;;;;;;;;;5022531;28;20126;-88
2022/08/03 14:05:42;;;;;;;18.45;6.00;;;;;;;;;;4994827;28;20105;-72
2022/08/03 14:08:09;;;;;;;19.20;5.90;;;;;;;;;;5001630;28;20124;-74
2022/08/03 14:10:36;;;;;;;21.50;6.10;;;;;;;;;;5023366;28;20045;-82
2022/08/03 14:13:03;;;;;;;22.60;5.57;;;;;;;;;;5021082;28;20046;-74
2022/08/03 14:15:29;;;;;;;17.60;6.10;;;;;;;;;;5025517;28;20154;-75
2022/08/03 14:17:56;;;;;;;24.85;6.07;;;;;;;;;;5011878;28;20049;-74
2022/08/03 14:20:22;;;;;;;20.77;5.82;;;;;;;;;;5026148;28;20099;-83
2022/08/03 14:22:48;;;;;;;22.77;6.13;;;;;;;;;;5021332;28;20114;-75
2022/08/03 14:25:14;;;;;;;23.25;6.72;;;;;;;;;;5023872;28;20463;-87
2022/08/03 14:27:40;;;;;;;23.70;6.53;;;;;;;;;;5027795;28;20041;-86
2022/08/03 14:30:06;;;;;;;22.40;6.85;;;;;;;;;;5026294;28;20140;-90
2022/08/03 14:32:32;;;;;;;21.35;6.57;;;;;;;;;;5007212;28;20095;-77
2022/08/03 14:34:58;;;;;;;21.75;6.93;;;;;;;;;;5006871;28;20101;-72
2022/08/03 14:37:24;;;;;;;21.20;7.05;;;;;;;;;;5007200;28;20041;-80
2022/08/03 14:39:50;;;;;;;22.65;6.97;;;;;;;;;;5021552;28;20119;-88
2022/08/03 14:42:16;;;;;;;17.08;6.40;;;;;;;;;;5019492;28;20180;-78
2022/08/03 14:44:43;;;;;;;17.88;6.90;;;;;;;;;;5017665;28;20173;-73
2022/08/03 14:47:09;;;;;;;22.77;6.95;;;;;;;;;;5016765;28;20045;-82
2022/08/03 14:49:35;;;;;;;18.13;6.90;;;;;;;;;;5016023;28;20049;-77
2022/08/03 14:52:01;;;;;;;17.40;6.43;;;;;;;;;;5018777;28;20050;-74
2022/08/03 14:54:30;;;;;;;23.40;6.78;;;;;;;;;;5014181;28;20046;-73
2022/08/03 14:56:57;;;;;;;16.35;6.18;;;;;;;;;;5003882;28;20482;-71
2022/08/03 14:59:23;;;;;;;21.00;5.70;;;;;;;;;;5017788;28;20137;-72